Huvudsida
METAR-TAF:

METAR-TAF

Flygplatser :

Lanseria, Sydafrika

latitud: 25-56S, longitud: 027-56E, höjd: 1377 m

Aktuellt väderrapport

Denna rapport gjordes för 1 timme och 6 minuter sedan, klockan 12:00 UTC
Vind 11 kt från nord/nordväst
Temperatur 23°C
Fuktighet 16%
Tryck 1022 hPa
Sikt 10 km eller mer
Inga moln under 1 500 m eller inga cumulonimbus

METAR: FALA 191200Z 33011KT CAVOK 23/M04 Q1022 NOSIG

Tid: 15:06 (13:06 UTC)

Väderprognos

Denna rapport gjordes för 3 timmar och 6 minuter sedan, klockan 10:00 UTC
Prognos gäller från 19 kl. 12 UTC till 20 kl. 12 UTC
Vind 13 kt från nord/nordväst
Sikt 10 km eller mer
Inga moln under 1 500 m eller inga cumulonimbus
Blir
från 19 kl. 15 UTC till 19 kl. 17 UTC
Vind 3 kt varierande vindriktning
Blir
från 20 kl. 10 UTC till 20 kl. 12 UTC
Vind 8 kt från väst/nordväst

TAF: FALA 191000Z 1912/2012 33013KT CAVOK TX24/1913Z TN04/2005Z BECMG 1915/1917 VRB03KT BECMG 2010/2012 29008KT

Aktuella väderrapporter och prognoser från 4000 flygplatser (METAR- och TAF-rapporter).

De tillgängliga stationerna syns som gula och röda prickar på kartan.

För musen över prickarna för att se namnen på stationerna.

Klicka sedan för att få väderrapporter och prognoser.

För att ändra kartan: Klicka på de gröna knapparna med ett svart kors på för att zooma in; den gröna knappen med ett streck på för att zooma ut; eller på de gröna pilarna för angränsande kartor.


METAR-TAF: